createdAt,value
2023-04-09T00:00:29.671Z,99.90
2023-04-09T00:02:57.488Z,99.90
2023-04-09T00:05:26.710Z,99.90
2023-04-09T00:07:54.526Z,99.90
2023-04-09T00:10:22.484Z,99.90
2023-04-09T00:12:50.459Z,99.90
2023-04-09T00:15:30.176Z,99.90
2023-04-09T00:17:58.816Z,99.90
2023-04-09T00:20:28.039Z,99.90
2023-04-09T00:22:56.382Z,99.90
2023-04-09T00:25:24.326Z,99.90
2023-04-09T00:27:52.136Z,99.90
2023-04-09T00:30:19.932Z,99.90
2023-04-09T00:32:47.878Z,99.90
2023-04-09T00:35:17.345Z,99.90
2023-04-09T00:37:46.500Z,99.90
2023-04-09T00:40:14.997Z,99.90
2023-04-09T00:42:42.957Z,99.90
2023-04-09T00:45:11.514Z,99.90
2023-04-09T00:47:39.394Z,99.90
2023-04-09T00:50:08.027Z,99.90
2023-04-09T00:52:36.119Z,99.90
2023-04-09T00:55:06.538Z,99.90
2023-04-09T00:57:34.456Z,99.90
2023-04-09T01:00:02.428Z,99.90
2023-04-09T01:02:30.957Z,99.90
2023-04-09T01:04:59.124Z,99.90
2023-04-09T01:07:37.388Z,99.90
2023-04-09T01:10:17.901Z,99.90
2023-04-09T01:12:55.607Z,99.90
2023-04-09T01:15:27.682Z,99.90
2023-04-09T01:18:02.789Z,99.90
2023-04-09T01:20:37.160Z,99.90
2023-04-09T01:23:15.082Z,99.90
2023-04-09T01:26:01.590Z,99.90
2023-04-09T01:28:34.144Z,99.90
2023-04-09T01:31:05.328Z,99.90
2023-04-09T01:33:34.560Z,99.90
2023-04-09T01:36:05.667Z,99.90
2023-04-09T01:38:36.248Z,99.90
2023-04-09T01:41:05.177Z,99.90
2023-04-09T01:43:36.245Z,99.90
2023-04-09T01:46:05.050Z,99.90
2023-04-09T01:48:34.108Z,99.90
2023-04-09T01:51:02.377Z,99.90
2023-04-09T01:53:31.087Z,99.90
2023-04-09T01:56:00.734Z,99.90
2023-04-09T01:58:28.930Z,99.90
2023-04-09T02:01:02.544Z,99.90
2023-04-09T02:03:36.494Z,99.90
2023-04-09T02:06:10.748Z,99.90
2023-04-09T02:08:39.098Z,99.90
2023-04-09T02:11:10.806Z,99.90
2023-04-09T02:13:41.443Z,99.90
2023-04-09T02:16:13.648Z,99.90
2023-04-09T02:18:41.626Z,99.90
2023-04-09T02:21:09.532Z,99.90
2023-04-09T02:23:37.331Z,99.90
2023-04-09T02:26:05.184Z,99.90
2023-04-09T02:28:32.974Z,99.90
2023-04-09T02:31:00.809Z,99.90
2023-04-09T02:33:30.001Z,99.90
2023-04-09T02:35:57.793Z,99.90
2023-04-09T02:38:25.805Z,99.90
2023-04-09T02:40:53.608Z,99.90
2023-04-09T02:43:21.394Z,99.90
2023-04-09T02:45:49.279Z,99.90
2023-04-09T02:48:17.106Z,99.90
2023-04-09T02:50:46.264Z,99.90
2023-04-09T02:53:14.102Z,99.90
2023-04-09T02:55:41.898Z,99.90
2023-04-09T02:58:09.763Z,99.90
2023-04-09T03:00:38.624Z,99.90
2023-04-09T03:03:06.566Z,99.90
2023-04-09T03:05:34.436Z,99.90
2023-04-09T03:08:03.721Z,99.90
2023-04-09T03:10:31.574Z,99.90
2023-04-09T03:12:59.392Z,99.90
2023-04-09T03:15:27.264Z,99.90
2023-04-09T03:17:55.098Z,99.90
2023-04-09T03:20:22.949Z,99.90
2023-04-09T03:22:50.738Z,99.90
2023-04-09T03:25:20.836Z,99.90
2023-04-09T03:27:48.652Z,99.90
2023-04-09T03:30:16.565Z,99.90
2023-04-09T03:32:44.403Z,99.90
2023-04-09T03:35:12.273Z,99.90
2023-04-09T03:37:40.072Z,99.90
2023-04-09T03:40:08.950Z,99.90
2023-04-09T03:42:38.136Z,99.90
2023-04-09T03:45:06.769Z,99.90
2023-04-09T03:47:34.677Z,99.90
2023-04-09T03:50:02.535Z,99.90
2023-04-09T03:52:30.319Z,99.90
2023-04-09T03:54:58.123Z,99.90
2023-04-09T03:57:25.917Z,99.90
2023-04-09T03:59:55.080Z,99.90
2023-04-09T04:02:23.029Z,99.90
2023-04-09T04:04:51.012Z,99.90
2023-04-09T04:07:18.829Z,99.90
2023-04-09T04:09:46.646Z,99.90
2023-04-09T04:12:14.461Z,99.90
2023-04-09T04:14:42.271Z,99.90
2023-04-09T04:17:11.715Z,99.90
2023-04-09T04:19:39.513Z,99.90
2023-04-09T04:22:07.311Z,99.90
2023-04-09T04:24:35.184Z,99.90
2023-04-09T04:27:03.030Z,99.90
2023-04-09T04:29:30.861Z,99.90
2023-04-09T04:31:58.785Z,99.90
2023-04-09T04:34:28.037Z,99.90
2023-04-09T04:36:55.968Z,99.90
2023-04-09T04:39:23.811Z,99.90
2023-04-09T04:41:51.599Z,99.90
2023-04-09T04:44:19.413Z,99.90
2023-04-09T04:46:47.205Z,99.90
2023-04-09T04:49:15.020Z,99.90
2023-04-09T04:51:44.157Z,99.90
2023-04-09T04:54:11.964Z,99.90
2023-04-09T04:56:39.764Z,99.90
2023-04-09T04:59:07.574Z,99.90
2023-04-09T05:01:35.539Z,99.90
2023-04-09T05:04:04.418Z,99.90
2023-04-09T05:06:32.345Z,99.90
2023-04-09T05:09:01.571Z,99.90
2023-04-09T05:11:29.465Z,99.90
2023-04-09T05:13:57.269Z,99.90
2023-04-09T05:16:25.073Z,99.90
2023-04-09T05:18:53.074Z,99.90
2023-04-09T05:21:20.981Z,99.90
2023-04-09T05:23:48.820Z,99.90
2023-04-09T05:26:17.976Z,99.90
2023-04-09T05:28:45.764Z,99.90
2023-04-09T05:31:15.483Z,99.90
2023-04-09T05:33:43.349Z,99.90
2023-04-09T05:36:17.169Z,99.90
2023-04-09T05:38:45.176Z,99.90
2023-04-09T05:41:13.018Z,99.90
2023-04-09T05:43:42.778Z,99.90
2023-04-09T05:46:11.548Z,99.90
2023-04-09T05:48:39.365Z,99.90
2023-04-09T05:51:07.344Z,99.90
2023-04-09T05:53:35.482Z,99.90
2023-04-09T05:56:03.337Z,99.90
2023-04-09T05:58:31.195Z,99.90
2023-04-09T06:01:00.367Z,99.90
2023-04-09T06:03:28.797Z,99.90
2023-04-09T06:05:56.761Z,99.90
2023-04-09T06:08:24.620Z,99.90
2023-04-09T06:10:52.425Z,99.90
2023-04-09T06:13:21.490Z,99.90
2023-04-09T06:15:49.355Z,99.90
2023-04-09T06:18:18.585Z,99.90
2023-04-09T06:20:46.410Z,99.90
2023-04-09T06:23:14.327Z,99.90
2023-04-09T06:25:42.137Z,99.90
2023-04-09T06:28:09.929Z,99.90
2023-04-09T06:30:37.747Z,99.90
2023-04-09T06:33:05.570Z,99.90
2023-04-09T06:35:34.747Z,99.90
2023-04-09T06:38:02.669Z,99.90
2023-04-09T06:40:31.210Z,99.90
2023-04-09T06:42:59.036Z,99.90
2023-04-09T06:45:27.489Z,99.90
2023-04-09T06:47:55.480Z,99.90
2023-04-09T06:50:23.390Z,99.90
2023-04-09T06:52:52.526Z,99.90
2023-04-09T06:55:20.471Z,99.90
2023-04-09T06:57:48.348Z,99.90
2023-04-09T07:00:16.534Z,99.90
2023-04-09T07:02:44.560Z,99.90
2023-04-09T07:05:13.073Z,99.90
2023-04-09T07:07:40.975Z,99.90
2023-04-09T07:10:10.932Z,99.90
2023-04-09T07:12:38.780Z,99.90
2023-04-09T07:15:08.125Z,99.90
2023-04-09T07:17:36.803Z,99.90
2023-04-09T07:20:05.047Z,99.90
2023-04-09T07:22:32.843Z,99.90
2023-04-09T07:25:00.803Z,99.90
2023-04-09T07:27:30.253Z,99.90
2023-04-09T07:29:58.787Z,99.90
2023-04-09T07:32:27.861Z,99.90
2023-04-09T07:34:57.244Z,99.90
2023-04-09T07:37:25.236Z,99.90
2023-04-09T07:39:53.356Z,99.90
2023-04-09T07:42:21.796Z,99.90
2023-04-09T07:44:51.328Z,99.90
2023-04-09T07:47:19.214Z,99.90
2023-04-09T07:49:47.027Z,99.90
2023-04-09T07:52:14.841Z,99.90
2023-04-09T07:54:42.752Z,99.90
2023-04-09T07:57:10.609Z,99.90
2023-04-09T07:59:38.419Z,99.90
2023-04-09T08:02:08.557Z,99.90
2023-04-09T08:04:36.768Z,99.90
2023-04-09T08:07:04.871Z,99.90
2023-04-09T08:09:32.850Z,99.90
2023-04-09T08:12:01.070Z,99.90
2023-04-09T08:14:28.892Z,99.90
2023-04-09T08:16:56.675Z,99.90
2023-04-09T08:19:25.831Z,99.90
2023-04-09T08:21:53.641Z,99.90
2023-04-09T08:24:21.457Z,99.90
2023-04-09T08:26:49.294Z,99.90
2023-04-09T08:29:17.105Z,99.90
2023-04-09T08:31:44.990Z,99.90
2023-04-09T08:34:13.013Z,99.90
2023-04-09T08:36:42.221Z,99.90
2023-04-09T08:39:10.067Z,99.90
2023-04-09T08:41:43.961Z,99.90
2023-04-09T08:44:11.904Z,99.90
2023-04-09T08:46:39.742Z,99.90
2023-04-09T08:49:09.939Z,99.90
2023-04-09T08:51:39.204Z,99.90
2023-04-09T08:54:08.578Z,99.90
2023-04-09T08:56:36.751Z,99.90
2023-04-09T08:59:05.408Z,99.90
2023-04-09T09:01:33.768Z,99.90
2023-04-09T09:04:03.975Z,99.90
2023-04-09T09:06:34.000Z,99.90
2023-04-09T09:09:04.574Z,99.90
2023-04-09T09:11:34.501Z,99.90
2023-04-09T09:14:03.553Z,99.90
2023-04-09T09:16:33.209Z,99.70
2023-04-09T09:19:01.798Z,99.70
2023-04-09T09:21:31.028Z,99.60
2023-04-09T09:23:59.116Z,99.50
2023-04-09T09:26:30.546Z,99.60
2023-04-09T09:29:05.703Z,99.40
2023-04-09T09:31:49.106Z,99.30
2023-04-09T09:34:17.941Z,99.40
2023-04-09T09:36:46.288Z,99.30
2023-04-09T09:39:17.167Z,99.30
2023-04-09T09:41:46.301Z,99.20
2023-04-09T09:44:33.437Z,99.10
2023-04-09T09:47:04.431Z,99.00
2023-04-09T09:49:32.267Z,98.90
2023-04-09T09:52:02.966Z,98.40
2023-04-09T09:54:36.234Z,98.10
2023-04-09T09:57:08.090Z,98.10
2023-04-09T09:59:41.630Z,98.20
2023-04-09T10:02:19.322Z,98.30
2023-04-09T10:04:49.842Z,97.90
2023-04-09T10:07:19.340Z,97.80
2023-04-09T10:09:50.557Z,97.70
2023-04-09T10:12:19.806Z,97.70
2023-04-09T10:14:49.614Z,97.90
2023-04-09T10:17:18.126Z,97.70
2023-04-09T10:19:54.837Z,97.20
2023-04-09T10:22:26.957Z,97.10
2023-04-09T10:24:55.750Z,97.10
2023-04-09T10:27:23.757Z,97.10
2023-04-09T10:29:52.965Z,97.10
2023-04-09T10:32:22.264Z,97.10
2023-04-09T10:34:52.082Z,97.30
2023-04-09T10:37:23.724Z,97.60
2023-04-09T10:39:52.742Z,97.40
2023-04-09T10:42:24.756Z,97.20
2023-04-09T10:45:08.474Z,97.20
2023-04-09T10:47:38.426Z,97.20
2023-04-09T10:50:20.324Z,97.00
2023-04-09T10:52:48.954Z,96.80
2023-04-09T10:55:36.305Z,96.70
2023-04-09T10:58:05.449Z,96.70
2023-04-09T11:00:38.616Z,96.70
2023-04-09T11:03:22.654Z,96.70
2023-04-09T11:05:54.765Z,96.80
2023-04-09T11:08:23.051Z,96.70
2023-04-09T11:10:52.390Z,96.80
2023-04-09T11:13:21.827Z,96.70
2023-04-09T11:15:51.085Z,96.60
2023-04-09T11:18:22.185Z,96.50
2023-04-09T11:20:50.075Z,96.40
2023-04-09T11:23:19.072Z,96.50
2023-04-09T11:25:50.694Z,96.40
2023-04-09T11:28:19.373Z,96.40
2023-04-09T11:30:47.846Z,96.40
2023-04-09T11:33:19.569Z,96.40
2023-04-09T11:35:48.414Z,96.40
2023-04-09T11:38:16.545Z,96.30
2023-04-09T11:40:48.491Z,96.20
2023-04-09T11:43:17.625Z,96.40
2023-04-09T11:45:47.543Z,95.90
2023-04-09T11:48:18.104Z,95.90
2023-04-09T11:50:46.571Z,95.90
2023-04-09T11:53:18.686Z,95.90
2023-04-09T11:55:49.259Z,95.70
2023-04-09T11:58:17.363Z,95.80
2023-04-09T12:00:45.480Z,95.90
2023-04-09T12:03:15.980Z,95.60
2023-04-09T12:05:51.172Z,95.60
2023-04-09T12:08:24.519Z,95.60
2023-04-09T12:10:53.893Z,95.60
2023-04-09T12:13:22.059Z,95.60
2023-04-09T12:15:51.306Z,95.30
2023-04-09T12:18:19.135Z,94.90
2023-04-09T12:20:49.598Z,94.90
2023-04-09T12:23:17.659Z,94.90
2023-04-09T12:25:47.579Z,94.90
2023-04-09T12:28:18.289Z,94.90
2023-04-09T12:30:48.912Z,94.80
2023-04-09T12:33:16.746Z,94.70
2023-04-09T12:35:44.743Z,94.60
2023-04-09T12:38:16.120Z,94.60
2023-04-09T12:40:43.970Z,94.40
2023-04-09T12:43:11.913Z,94.20
2023-04-09T12:45:39.721Z,94.10
2023-04-09T12:48:07.623Z,94.30
2023-04-09T12:50:35.452Z,94.10
2023-04-09T12:53:03.256Z,94.10
2023-04-09T12:55:32.741Z,94.00
2023-04-09T12:58:01.833Z,93.90
2023-04-09T13:00:31.048Z,93.90
2023-04-09T13:02:59.007Z,93.70
2023-04-09T13:05:26.909Z,93.60
2023-04-09T13:07:54.635Z,93.40
2023-04-09T13:10:22.360Z,93.50
2023-04-09T13:12:51.489Z,93.70
2023-04-09T13:15:19.251Z,93.10
2023-04-09T13:17:47.014Z,93.00
2023-04-09T13:20:15.032Z,93.10
2023-04-09T13:22:42.849Z,93.20
2023-04-09T13:25:10.908Z,93.20
2023-04-09T13:27:39.025Z,93.30
2023-04-09T13:30:09.661Z,93.00
2023-04-09T13:32:37.466Z,92.80
2023-04-09T13:35:05.644Z,92.70
2023-04-09T13:37:33.397Z,92.80
2023-04-09T13:40:01.217Z,92.80
2023-04-09T13:42:28.990Z,92.50
2023-04-09T13:44:57.393Z,92.40
2023-04-09T13:47:26.576Z,92.30
2023-04-09T13:49:54.381Z,92.10
2023-04-09T13:52:22.108Z,91.90
2023-04-09T13:54:49.966Z,92.00
2023-04-09T13:57:17.732Z,92.00
2023-04-09T13:59:45.633Z,91.90
2023-04-09T14:02:13.540Z,91.70
2023-04-09T14:04:42.889Z,92.00
2023-04-09T14:07:10.658Z,92.00
2023-04-09T14:09:38.391Z,92.00
2023-04-09T14:12:06.481Z,91.80
2023-04-09T14:14:34.236Z,91.60
2023-04-09T14:17:01.984Z,91.70
2023-04-09T14:19:29.803Z,91.60
2023-04-09T14:21:58.929Z,91.60
2023-04-09T14:24:26.675Z,91.40
2023-04-09T14:26:54.444Z,91.10
2023-04-09T14:29:22.694Z,91.10
2023-04-09T14:31:51.648Z,91.00
2023-04-09T14:34:19.424Z,91.30
2023-04-09T14:36:47.196Z,91.30
2023-04-09T14:39:16.454Z,91.20
2023-04-09T14:41:44.257Z,91.20
2023-04-09T14:44:12.122Z,91.40
2023-04-09T14:46:39.876Z,91.20
2023-04-09T14:49:07.715Z,91.20
2023-04-09T14:51:35.717Z,91.20
2023-04-09T14:54:03.464Z,91.30
2023-04-09T14:56:32.533Z,91.30
2023-04-09T14:59:00.493Z,91.30
2023-04-09T15:01:28.529Z,91.20
2023-04-09T15:03:56.495Z,91.20
2023-04-09T15:06:24.515Z,91.20
2023-04-09T15:08:54.330Z,91.20
2023-04-09T15:11:23.122Z,91.30
2023-04-09T15:13:52.698Z,91.20
2023-04-09T15:16:25.763Z,91.10
2023-04-09T15:18:55.696Z,90.60
2023-04-09T15:21:23.984Z,90.80
2023-04-09T15:23:52.929Z,90.70
2023-04-09T15:26:21.025Z,90.80
2023-04-09T15:28:49.303Z,90.90
2023-04-09T15:31:18.521Z,90.70
2023-04-09T15:33:46.943Z,90.80
2023-04-09T15:36:15.087Z,90.50
2023-04-09T15:38:42.849Z,90.00
2023-04-09T15:41:11.018Z,90.50
2023-04-09T15:43:40.101Z,90.40
2023-04-09T15:46:11.907Z,90.50
2023-04-09T15:48:41.880Z,90.50
2023-04-09T15:51:10.457Z,90.60
2023-04-09T15:53:38.419Z,90.60
2023-04-09T15:56:07.041Z,90.50
2023-04-09T15:58:36.016Z,90.50
2023-04-09T16:01:07.747Z,90.60
2023-04-09T16:03:39.592Z,90.50
2023-04-09T16:06:10.073Z,90.50
2023-04-09T16:08:38.513Z,90.30
2023-04-09T16:11:08.097Z,90.40
2023-04-09T16:13:35.864Z,90.40
2023-04-09T16:16:03.778Z,90.40
2023-04-09T16:18:31.555Z,90.40
2023-04-09T16:20:59.555Z,90.60
2023-04-09T16:23:30.670Z,90.70
2023-04-09T16:25:58.738Z,90.60
2023-04-09T16:28:26.669Z,90.50
2023-04-09T16:30:54.430Z,90.50
2023-04-09T16:33:24.241Z,90.50
2023-04-09T16:35:52.191Z,90.40
2023-04-09T16:38:20.019Z,90.30
2023-04-09T16:40:49.144Z,90.30
2023-04-09T16:43:16.900Z,90.10
2023-04-09T16:45:44.715Z,90.20
2023-04-09T16:48:13.330Z,90.20
2023-04-09T16:50:41.206Z,90.20
2023-04-09T16:53:09.112Z,90.10
2023-04-09T16:55:37.061Z,90.10
2023-04-09T16:58:06.143Z,90.10
2023-04-09T17:00:35.234Z,90.10
2023-04-09T17:03:03.185Z,90.10
2023-04-09T17:05:31.325Z,90.00
2023-04-09T17:07:59.083Z,90.00
2023-04-09T17:10:27.035Z,90.00
2023-04-09T17:12:54.846Z,90.00
2023-04-09T17:15:25.125Z,90.00
2023-04-09T17:17:53.654Z,89.90
2023-04-09T17:20:22.516Z,90.00
2023-04-09T17:22:50.273Z,90.00
2023-04-09T17:25:18.283Z,90.10
2023-04-09T17:27:46.389Z,90.00
2023-04-09T17:30:14.503Z,90.00
2023-04-09T17:32:44.158Z,90.00
2023-04-09T17:35:11.958Z,89.60
2023-04-09T17:37:39.737Z,89.80
2023-04-09T17:40:08.819Z,89.90
2023-04-09T17:42:36.595Z,89.80
2023-04-09T17:45:04.578Z,89.80
2023-04-09T17:47:32.405Z,89.60
2023-04-09T17:50:01.615Z,89.60
2023-04-09T17:52:29.391Z,89.80
2023-04-09T17:54:57.430Z,89.70
2023-04-09T17:57:25.142Z,89.80
2023-04-09T17:59:52.933Z,89.90
2023-04-09T18:02:21.550Z,89.70
2023-04-09T18:04:49.736Z,89.80
2023-04-09T18:07:18.965Z,89.80
2023-04-09T18:09:46.961Z,89.90
2023-04-09T18:12:14.727Z,89.80
2023-04-09T18:14:42.451Z,89.80
2023-04-09T18:17:10.188Z,89.90
2023-04-09T18:19:37.921Z,89.80
2023-04-09T18:22:05.802Z,89.90
2023-04-09T18:24:35.014Z,89.90
2023-04-09T18:27:03.158Z,90.00
2023-04-09T18:29:31.305Z,89.90
2023-04-09T18:31:59.595Z,90.30
2023-04-09T18:34:27.447Z,89.90
2023-04-09T18:36:55.679Z,89.90
2023-04-09T18:39:23.553Z,90.00
2023-04-09T18:41:52.623Z,90.00
2023-04-09T18:44:20.356Z,90.00
2023-04-09T18:46:48.134Z,90.00
2023-04-09T18:49:16.134Z,90.00
2023-04-09T18:51:43.862Z,90.00
2023-04-09T18:54:11.603Z,90.00
2023-04-09T18:56:39.360Z,90.00
2023-04-09T18:59:08.453Z,90.00
2023-04-09T19:01:36.286Z,90.00
2023-04-09T19:04:04.315Z,90.10
2023-04-09T19:06:33.023Z,90.10
2023-04-09T19:09:00.752Z,90.10
2023-04-09T19:11:28.801Z,90.10
2023-04-09T19:13:56.581Z,90.10
2023-04-09T19:16:26.039Z,90.10
2023-04-09T19:18:54.124Z,90.10
2023-04-09T19:21:22.318Z,90.20
2023-04-09T19:23:50.061Z,90.20
2023-04-09T19:26:18.152Z,90.20
2023-04-09T19:28:45.904Z,90.20
2023-04-09T19:31:14.461Z,90.60
2023-04-09T19:33:43.614Z,90.70
2023-04-09T19:36:12.828Z,90.70
2023-04-09T19:38:40.656Z,90.70
2023-04-09T19:41:08.573Z,91.00
2023-04-09T19:43:37.464Z,90.70
2023-04-09T19:46:08.384Z,90.70
2023-04-09T19:48:36.165Z,90.70
2023-04-09T19:51:05.694Z,90.60
2023-04-09T19:53:33.504Z,90.60
2023-04-09T19:56:01.388Z,90.60
2023-04-09T19:58:29.144Z,90.70
2023-04-09T20:00:56.979Z,90.70
2023-04-09T20:03:24.883Z,90.70
2023-04-09T20:05:53.398Z,90.70
2023-04-09T20:08:22.493Z,90.70
2023-04-09T20:10:50.563Z,90.70
2023-04-09T20:13:18.307Z,90.80
2023-04-09T20:15:46.038Z,90.80
2023-04-09T20:18:13.769Z,90.80
2023-04-09T20:20:41.548Z,90.80
2023-04-09T20:23:09.339Z,90.80
2023-04-09T20:25:38.484Z,90.70
2023-04-09T20:28:06.310Z,90.80
2023-04-09T20:30:34.147Z,90.80
2023-04-09T20:33:02.171Z,91.10
2023-04-09T20:35:30.052Z,90.80
2023-04-09T20:37:57.787Z,90.80
2023-04-09T20:40:25.753Z,90.80
2023-04-09T20:42:54.868Z,90.70
2023-04-09T20:45:22.641Z,90.70
2023-04-09T20:47:51.864Z,90.70
2023-04-09T20:50:20.320Z,90.60
2023-04-09T20:52:49.496Z,90.60
2023-04-09T20:55:17.508Z,90.60
2023-04-09T20:57:45.249Z,90.60
2023-04-09T21:00:15.096Z,90.60
2023-04-09T21:02:42.900Z,90.60
2023-04-09T21:05:21.800Z,90.60
2023-04-09T21:07:51.086Z,90.60
2023-04-09T21:10:18.937Z,90.70
2023-04-09T21:12:46.678Z,90.70
2023-04-09T21:15:15.939Z,90.70
2023-04-09T21:17:43.752Z,90.80
2023-04-09T21:20:12.555Z,90.70
2023-04-09T21:22:40.295Z,90.80
2023-04-09T21:25:08.689Z,90.80
2023-04-09T21:27:36.557Z,90.80
2023-04-09T21:30:04.786Z,90.80
2023-04-09T21:32:33.893Z,90.80
2023-04-09T21:35:01.690Z,90.80
2023-04-09T21:37:31.849Z,90.80
2023-04-09T21:39:59.587Z,90.80
2023-04-09T21:42:27.480Z,90.80
2023-04-09T21:44:55.218Z,90.80
2023-04-09T21:47:23.558Z,90.80
2023-04-09T21:49:52.667Z,90.80
2023-04-09T21:52:20.435Z,90.80
2023-04-09T21:54:48.164Z,90.80
2023-04-09T21:57:16.304Z,90.90
2023-04-09T21:59:44.020Z,90.80
2023-04-09T22:02:11.904Z,90.80
2023-04-09T22:04:42.391Z,90.90
2023-04-09T22:07:12.412Z,90.90
2023-04-09T22:09:40.271Z,90.90
2023-04-09T22:12:08.614Z,90.90
2023-04-09T22:14:36.360Z,90.90
2023-04-09T22:17:04.123Z,90.90
2023-04-09T22:19:32.839Z,90.90
2023-04-09T22:22:00.747Z,90.90
2023-04-09T22:24:30.315Z,90.90
2023-04-09T22:26:59.208Z,91.00
2023-04-09T22:29:27.638Z,91.00
2023-04-09T22:31:55.637Z,91.10
2023-04-09T22:34:23.439Z,91.00
2023-04-09T22:36:51.419Z,91.00
2023-04-09T22:39:19.186Z,91.10
2023-04-09T22:41:48.296Z,91.10
2023-04-09T22:44:16.092Z,91.10
2023-04-09T22:46:43.896Z,91.10
2023-04-09T22:49:12.262Z,91.20
2023-04-09T22:51:41.783Z,91.20
2023-04-09T22:54:10.346Z,91.30
2023-04-09T22:56:38.329Z,91.30
2023-04-09T22:59:07.421Z,91.30
2023-04-09T23:01:35.487Z,91.30
2023-04-09T23:04:03.496Z,91.30
2023-04-09T23:06:31.876Z,91.30
2023-04-09T23:08:59.853Z,91.30
2023-04-09T23:11:28.056Z,91.30
2023-04-09T23:13:55.902Z,91.30
2023-04-09T23:16:25.041Z,91.30
2023-04-09T23:18:53.096Z,91.30
2023-04-09T23:21:21.051Z,91.30
2023-04-09T23:23:48.903Z,91.30
2023-04-09T23:26:16.672Z,91.30
2023-04-09T23:28:44.415Z,91.40
2023-04-09T23:31:12.275Z,91.40
2023-04-09T23:33:41.374Z,91.40
2023-04-09T23:36:09.769Z,91.50
2023-04-09T23:38:39.996Z,91.50
2023-04-09T23:41:07.951Z,91.50
2023-04-09T23:43:35.916Z,91.50
2023-04-09T23:46:03.715Z,91.50
2023-04-09T23:48:31.461Z,91.40
2023-04-09T23:51:00.569Z,91.40
2023-04-09T23:53:28.315Z,91.40
2023-04-09T23:55:56.048Z,91.40
2023-04-09T23:58:23.828Z,91.50
